Fayetteville, NC

6:05 AM EST on December 29, 2014 (GMT -0500)
Sampson County | Change Station
CLOSE
Current Station
Airport
Location: Clinton,
Elevation: 148 ft
Nearby Weather Stations

Elev 148 ft 34.98 °N, 78.36 °W | Updated 10 minutes ago

Rain
Rain
58 °F
Feels Like 58 °F
N
10
Wind Variable Wind from NNE

Today
High -- | Low -- °F
--% Chance of Precip.
Yesterday
High -- | Low -- °F
Precip. -- in
7:22 AM 5:12 PM
First Quarter, 58% visible
Pressure 30.03 in
Visibility 5.0 miles
Clouds Overcast 900 ft
Dew Point 58 °F
Humidity 100%
Rainfall 0.06 in
Snow Depth Not available.
UV 0 out of 12
Pollen .20 out of 12
Air Quality Not available.
Flu Activity Not available.
METAR KCTZ 291055Z AUTO 02009KT 5SM RA OVC009 15/15 A3003 RMK AO2 P0002 T01460146

More Conditions Fewer Conditions

Pressure 30.03 in
Visibility 5.0 miles
Clouds Overcast 900 ft
Dew Point 58 °F
Humidity 100%
Rainfall 0.06 in
Snow Depth Not available.
UV 0 out of 12
Pollen .20 out of 12
Air Quality Not available.
Flu Activity Not available.
METAR KCTZ 291055Z AUTO 02009KT 5SM RA OVC009 15/15 A3003 RMK AO2 P0002 T01460146

More Conditions Fewer Conditions

10-Day Weather Forecast

Almanac

Astronomy

Dec. 29, 2014 Rise Set
Actual Time
Civil Twilight
Nautical Twilight
Astronomical Twilight
Moon
Length of Visible Light
Length of Day
Tomorrow will be .
, % of the Moon is Illuminated

Today's Extremes

State Highs State Lows

Community

WunderPhotos

Upload Photos

1,781,564 photos uploaded!

WunderBlogs® & News

Nearby

Air Quality

  Air Quality AQ Index Pollutant
Not available.

Snow Depth

Station Depth Elevation

Earthquake Activity

City Distance Mag. Time & Date
Minimum magnitude displayed is 2.5.

Coastal Water Temperatures

Place Temperature

Nearby Weather Stations